createdAt,value
2018-05-14T00:00:55.843Z,5.57
2018-05-14T00:03:23.361Z,5.80
2018-05-14T00:05:50.882Z,7.85
2018-05-14T00:08:18.406Z,5.87
2018-05-14T00:10:45.917Z,6.25
2018-05-14T00:13:13.435Z,6.60
2018-05-14T00:15:41.714Z,6.40
2018-05-14T00:18:09.283Z,6.03
2018-05-14T00:20:36.794Z,5.90
2018-05-14T00:23:04.316Z,6.20
2018-05-14T00:25:31.820Z,5.80
2018-05-14T00:27:59.380Z,5.87
2018-05-14T00:30:26.873Z,6.10
2018-05-14T00:32:55.145Z,5.83
2018-05-14T00:35:22.716Z,6.30
2018-05-14T00:37:50.281Z,6.10
2018-05-14T00:40:17.815Z,6.00
2018-05-14T00:42:45.312Z,6.35
2018-05-14T00:45:12.839Z,6.40
2018-05-14T00:47:40.343Z,6.62
2018-05-14T00:50:07.959Z,5.78
2018-05-14T00:52:35.460Z,6.18
2018-05-14T00:55:14.764Z,6.40
2018-05-14T00:57:43.049Z,6.30
2018-05-14T01:00:10.638Z,6.57
2018-05-14T01:02:38.173Z,7.00
2018-05-14T01:05:06.485Z,5.90
2018-05-14T01:07:33.989Z,5.78
2018-05-14T01:10:01.509Z,6.70
2018-05-14T01:12:29.025Z,5.78
2018-05-14T01:14:57.318Z,6.40
2018-05-14T01:17:24.841Z,6.10
2018-05-14T01:19:52.416Z,6.55
2018-05-14T01:22:20.754Z,6.60
2018-05-14T01:24:53.986Z,7.30
2018-05-14T01:27:21.529Z,6.60
2018-05-14T01:29:49.028Z,6.62
2018-05-14T01:32:16.575Z,5.80
2018-05-14T01:34:44.100Z,6.10
2018-05-14T01:37:11.610Z,6.53
2018-05-14T01:39:39.126Z,5.87
2018-05-14T01:42:06.653Z,6.50
2018-05-14T01:44:34.175Z,5.80
2018-05-14T01:47:02.448Z,6.20
2018-05-14T01:49:30.794Z,6.60
2018-05-14T01:51:58.294Z,6.40
2018-05-14T01:54:25.857Z,6.15
2018-05-14T01:56:54.156Z,6.37
2018-05-14T01:59:21.674Z,6.18
2018-05-14T02:01:49.202Z,6.80
2018-05-14T02:04:16.701Z,6.43
2018-05-14T02:06:45.014Z,6.68
2018-05-14T02:09:12.540Z,6.70
2018-05-14T02:11:40.053Z,6.40
2018-05-14T02:14:07.579Z,6.20
2018-05-14T02:16:35.106Z,6.70
2018-05-14T02:19:02.673Z,6.07
2018-05-14T02:21:30.954Z,7.10
2018-05-14T02:23:59.218Z,6.62
2018-05-14T02:26:27.493Z,6.97
2018-05-14T02:28:55.024Z,6.30
2018-05-14T02:31:22.574Z,6.68
2018-05-14T02:33:50.078Z,6.53
2018-05-14T02:36:18.354Z,6.87
2018-05-14T02:38:46.632Z,6.80
2018-05-14T02:41:14.943Z,7.12
2018-05-14T02:43:42.469Z,6.23
2018-05-14T02:46:09.980Z,6.20
2018-05-14T02:48:37.486Z,6.20
2018-05-14T02:51:05.787Z,7.10
2018-05-14T02:53:33.307Z,6.75
2018-05-14T02:56:00.867Z,6.10
2018-05-14T02:58:28.386Z,7.43
2018-05-14T03:00:55.923Z,6.62
2018-05-14T03:03:24.248Z,6.70
2018-05-14T03:05:52.561Z,6.80
2018-05-14T03:08:20.841Z,7.10
2018-05-14T03:10:48.352Z,6.45
2018-05-14T03:13:15.860Z,6.60
2018-05-14T03:15:44.167Z,7.22
2018-05-14T03:18:11.665Z,6.37
2018-05-14T03:20:39.948Z,7.10
2018-05-14T03:23:07.466Z,7.03
2018-05-14T03:25:35.034Z,7.15
2018-05-14T03:28:02.550Z,6.80
2018-05-14T03:30:30.858Z,7.10
2018-05-14T03:32:58.442Z,6.90
2018-05-14T03:35:25.959Z,6.70
2018-05-14T03:37:54.241Z,6.80
2018-05-14T03:40:22.517Z,7.43
2018-05-14T03:42:50.803Z,6.95
2018-05-14T03:45:18.319Z,7.18
2018-05-14T03:47:45.813Z,7.83
2018-05-14T03:50:13.351Z,7.60
2018-05-14T03:52:40.897Z,6.30
2018-05-14T03:55:08.418Z,7.00
2018-05-14T03:57:35.949Z,7.10
2018-05-14T04:00:16.213Z,7.10
2018-05-14T04:02:55.587Z,7.78
2018-05-14T04:05:28.962Z,7.45
2018-05-14T04:07:56.476Z,7.45
2018-05-14T04:10:24.801Z,7.40
2018-05-14T04:12:52.337Z,6.87
2018-05-14T04:15:19.847Z,8.05
2018-05-14T04:17:47.381Z,7.65
2018-05-14T04:20:14.944Z,7.93
2018-05-14T04:22:42.491Z,7.85
2018-05-14T04:25:10.023Z,8.32
2018-05-14T04:27:37.587Z,11.82
2018-05-14T04:38:50.729Z,8.30
2018-05-14T04:41:18.242Z,7.80
2018-05-14T04:43:46.530Z,8.27
2018-05-14T04:46:14.063Z,7.80
2018-05-14T04:48:41.582Z,8.07
2018-05-14T04:51:09.125Z,7.68
2018-05-14T04:53:36.657Z,8.70
2018-05-14T04:56:04.210Z,8.40
2018-05-14T04:58:32.546Z,8.80
2018-05-14T05:01:00.067Z,8.00
2018-05-14T05:03:27.661Z,8.60
2018-05-14T05:05:55.182Z,7.95
2018-05-14T05:08:22.697Z,8.20
2018-05-14T05:10:50.219Z,8.40
2018-05-14T05:13:17.785Z,10.35
2018-05-14T05:15:45.318Z,9.70
2018-05-14T05:18:13.668Z,8.32
2018-05-14T05:20:41.233Z,8.90
2018-05-14T05:23:08.813Z,13.52
2018-05-14T05:25:36.452Z,9.23
2018-05-14T05:28:03.975Z,8.30
2018-05-14T05:30:31.520Z,8.73
2018-05-14T05:32:59.063Z,9.32
2018-05-14T05:35:26.605Z,9.07
2018-05-14T05:37:55.036Z,10.57
2018-05-14T05:40:23.172Z,9.23
2018-05-14T05:42:50.724Z,9.48
2018-05-14T05:45:18.272Z,8.85
2018-05-14T05:47:46.573Z,9.40
2018-05-14T05:50:14.853Z,8.73
2018-05-14T05:52:42.357Z,9.40
2018-05-14T05:55:11.558Z,8.80
2018-05-14T05:57:39.291Z,8.88
2018-05-14T06:00:06.831Z,9.13
2018-05-14T06:02:35.117Z,8.50
2018-05-14T06:05:02.663Z,9.23
2018-05-14T06:07:30.978Z,8.60
2018-05-14T06:09:58.517Z,9.50
2018-05-14T06:12:26.025Z,8.95
2018-05-14T06:14:58.176Z,9.20
2018-05-14T06:17:25.718Z,8.88
2018-05-14T06:19:53.284Z,8.90
2018-05-14T06:22:20.863Z,8.77
2018-05-14T06:24:48.397Z,9.80
2018-05-14T06:27:15.914Z,9.75
2018-05-14T06:29:44.237Z,9.15
2018-05-14T06:32:11.748Z,8.98
2018-05-14T06:34:39.271Z,9.00
2018-05-14T06:37:06.793Z,9.10
2018-05-14T06:39:34.324Z,8.50
2018-05-14T06:42:01.862Z,8.65
2018-05-14T06:44:29.382Z,11.68
2018-05-14T06:46:56.912Z,9.93
2018-05-14T06:49:24.461Z,11.75
2018-05-14T06:51:51.984Z,9.60
2018-05-14T06:54:19.534Z,7.50
2018-05-14T06:56:47.091Z,8.00
2018-05-14T06:59:14.624Z,8.30
2018-05-14T07:01:42.288Z,8.75
2018-05-14T07:04:09.868Z,7.50
2018-05-14T07:06:37.437Z,7.50
2018-05-14T07:09:05.779Z,9.07
2018-05-14T07:11:33.410Z,8.65
2018-05-14T07:14:00.900Z,7.32
2018-05-14T07:16:29.249Z,8.07
2018-05-14T07:18:56.763Z,8.27
2018-05-14T07:21:24.344Z,7.95
2018-05-14T07:23:51.934Z,8.30
2018-05-14T07:26:19.454Z,9.23
2018-05-14T07:28:47.020Z,8.70
2018-05-14T07:31:14.567Z,7.90
2018-05-14T07:33:42.156Z,9.95
2018-05-14T07:36:09.678Z,9.13
2018-05-14T07:38:37.236Z,8.15
2018-05-14T07:41:04.755Z,8.30
2018-05-14T07:43:32.269Z,8.07
2018-05-14T07:45:59.995Z,7.70
2018-05-14T07:48:27.491Z,7.47
2018-05-14T07:50:55.033Z,7.80
2018-05-14T07:53:22.557Z,8.10
2018-05-14T07:55:50.070Z,7.17
2018-05-14T07:58:17.586Z,7.25
2018-05-14T08:00:45.114Z,7.72
2018-05-14T08:03:12.625Z,7.10
2018-05-14T08:05:40.197Z,9.73
2018-05-14T08:08:07.749Z,7.20
2018-05-14T08:10:35.294Z,10.48
2018-05-14T08:13:03.592Z,7.90
2018-05-14T08:15:31.145Z,7.20
2018-05-14T08:17:58.656Z,7.10
2018-05-14T08:20:26.160Z,7.18
2018-05-14T08:22:54.494Z,7.60
2018-05-14T08:25:22.034Z,7.10
2018-05-14T08:27:49.542Z,7.20
2018-05-14T08:30:17.142Z,6.82
2018-05-14T08:32:44.656Z,7.55
2018-05-14T08:35:12.934Z,7.17
2018-05-14T08:37:40.453Z,7.50
2018-05-14T08:40:07.990Z,7.00
2018-05-14T08:42:35.514Z,6.30
2018-05-14T08:45:03.806Z,6.65
2018-05-14T08:47:32.151Z,6.40
2018-05-14T08:49:59.693Z,6.07
2018-05-14T08:52:27.215Z,6.85
2018-05-14T08:54:54.852Z,6.65
2018-05-14T08:57:22.374Z,6.25
2018-05-14T08:59:49.911Z,6.50
2018-05-14T09:02:17.416Z,7.05
2018-05-14T09:04:44.978Z,5.10
2018-05-14T09:07:12.497Z,6.00
2018-05-14T09:09:40.014Z,5.33
2018-05-14T09:12:08.317Z,8.30
2018-05-14T09:14:35.900Z,5.57
2018-05-14T09:17:03.360Z,7.03
2018-05-14T09:19:30.935Z,5.90
2018-05-14T09:21:58.450Z,5.80
2018-05-14T09:24:25.961Z,5.43
2018-05-14T09:26:53.506Z,5.70
2018-05-14T09:29:21.024Z,5.68
2018-05-14T09:31:48.565Z,5.60
2018-05-14T09:34:16.864Z,6.05
2018-05-14T09:36:45.155Z,5.75
2018-05-14T09:39:12.744Z,5.45
2018-05-14T09:41:40.390Z,5.60
2018-05-14T09:44:13.453Z,5.10
2018-05-14T09:46:41.112Z,5.70
2018-05-14T09:49:15.498Z,5.55
2018-05-14T09:51:43.133Z,4.87
2018-05-14T09:54:10.653Z,4.90
2018-05-14T09:56:38.952Z,5.72
2018-05-14T09:59:06.481Z,6.30
2018-05-14T10:01:33.998Z,6.30
2018-05-14T10:04:01.541Z,6.15
2018-05-14T10:06:29.073Z,5.20
2018-05-14T10:08:56.575Z,5.45
2018-05-14T10:11:24.104Z,5.63
2018-05-14T10:13:51.646Z,4.80
2018-05-14T10:16:19.180Z,4.47
2018-05-14T10:18:46.784Z,4.43
2018-05-14T10:21:14.262Z,5.78
2018-05-14T10:23:41.772Z,3.95
2018-05-14T10:26:09.311Z,4.75
2018-05-14T10:28:36.866Z,4.00
2018-05-14T10:31:04.380Z,4.30
2018-05-14T10:33:31.926Z,4.43
2018-05-14T10:35:59.454Z,4.15
2018-05-14T10:38:27.011Z,3.95
2018-05-14T10:40:54.497Z,4.40
2018-05-14T10:43:22.030Z,3.85
2018-05-14T10:45:49.604Z,3.30
2018-05-14T10:48:17.352Z,3.20
2018-05-14T10:50:44.897Z,4.00
2018-05-14T10:53:12.431Z,4.18
2018-05-14T10:55:39.928Z,3.80
2018-05-14T10:58:07.457Z,5.70
2018-05-14T11:00:35.002Z,3.70
2018-05-14T11:03:02.518Z,3.65
2018-05-14T11:05:30.031Z,2.92
2018-05-14T11:07:57.574Z,3.70
2018-05-14T11:10:25.115Z,3.43
2018-05-14T11:12:53.407Z,4.22
2018-05-14T11:15:21.704Z,3.78
2018-05-14T11:17:49.240Z,3.60
2018-05-14T11:20:16.771Z,3.40
2018-05-14T11:22:44.301Z,4.32
2018-05-14T11:25:11.883Z,3.55
2018-05-14T11:27:39.434Z,3.90
2018-05-14T11:30:06.979Z,3.65
2018-05-14T11:32:34.502Z,4.57
2018-05-14T11:35:02.837Z,4.30
2018-05-14T11:37:30.376Z,3.53
2018-05-14T11:39:57.902Z,4.78
2018-05-14T11:42:26.256Z,3.90
2018-05-14T11:44:53.808Z,3.47
2018-05-14T11:47:21.361Z,3.70
2018-05-14T11:49:48.882Z,3.40
2018-05-14T11:52:16.526Z,3.50
2018-05-14T11:54:44.174Z,3.65
2018-05-14T11:57:11.651Z,3.80
2018-05-14T11:59:39.192Z,4.20
2018-05-14T12:02:07.476Z,3.80
2018-05-14T12:04:35.754Z,3.50
2018-05-14T12:07:04.059Z,3.28
2018-05-14T12:09:31.621Z,3.37
2018-05-14T12:11:59.154Z,3.78
2018-05-14T12:14:27.440Z,3.90
2018-05-14T12:16:54.950Z,3.35
2018-05-14T12:19:22.456Z,3.70
2018-05-14T12:21:49.997Z,3.80
2018-05-14T12:24:18.347Z,4.40
2018-05-14T12:26:45.928Z,3.58
2018-05-14T12:29:13.463Z,3.78
2018-05-14T12:31:40.990Z,4.22
2018-05-14T12:34:08.591Z,3.90
2018-05-14T12:36:36.120Z,3.90
2018-05-14T12:39:03.753Z,6.53
2018-05-14T12:41:31.329Z,4.10
2018-05-14T12:43:58.865Z,4.50
2018-05-14T12:46:26.413Z,4.20
2018-05-14T12:48:53.947Z,3.87
2018-05-14T12:51:21.465Z,5.43
2018-05-14T12:53:49.031Z,4.15
2018-05-14T12:56:16.599Z,4.53
2018-05-14T12:58:44.128Z,5.57
2018-05-14T13:01:12.419Z,4.40
2018-05-14T13:03:40.050Z,4.25
2018-05-14T13:06:07.663Z,3.87
2018-05-14T13:08:35.235Z,4.85
2018-05-14T13:11:02.740Z,4.72
2018-05-14T13:13:30.263Z,4.55
2018-05-14T13:15:58.561Z,4.70
2018-05-14T13:18:26.103Z,4.97
2018-05-14T13:20:53.812Z,4.50
2018-05-14T13:23:22.101Z,4.85
2018-05-14T13:25:49.615Z,4.90
2018-05-14T13:28:17.138Z,5.10
2018-05-14T13:30:44.664Z,4.93
2018-05-14T13:33:12.207Z,5.70
2018-05-14T13:35:39.736Z,4.87
2018-05-14T13:38:07.405Z,4.95
2018-05-14T13:40:34.841Z,4.65
2018-05-14T13:43:02.441Z,5.40
2018-05-14T13:45:29.980Z,5.23
2018-05-14T13:47:57.561Z,5.85
2018-05-14T13:50:25.086Z,5.20
2018-05-14T13:52:52.599Z,4.68
2018-05-14T13:55:20.188Z,5.30
2018-05-14T13:57:47.752Z,4.78
2018-05-14T14:00:15.287Z,5.00
2018-05-14T14:02:43.587Z,4.50
2018-05-14T14:05:11.119Z,5.00
2018-05-14T14:07:38.674Z,5.35
2018-05-14T14:10:06.231Z,5.15
2018-05-14T14:12:33.769Z,5.82
2018-05-14T14:15:01.369Z,5.60
2018-05-14T14:17:28.921Z,6.15
2018-05-14T14:19:57.217Z,5.43
2018-05-14T14:22:24.749Z,5.00
2018-05-14T14:24:52.317Z,5.10
2018-05-14T14:27:20.642Z,5.40
2018-05-14T14:29:48.220Z,6.68
2018-05-14T14:32:15.720Z,5.10
2018-05-14T14:34:44.013Z,5.47
2018-05-14T14:37:11.632Z,4.80
2018-05-14T14:39:39.184Z,5.40
2018-05-14T14:42:06.798Z,4.55
2018-05-14T14:44:34.297Z,4.70
2018-05-14T14:47:01.816Z,5.00
2018-05-14T14:49:29.347Z,5.43
2018-05-14T14:51:56.932Z,4.93
2018-05-14T14:54:24.539Z,5.55
2018-05-14T14:56:52.060Z,4.80
2018-05-14T14:59:19.630Z,5.05
2018-05-14T15:01:47.158Z,5.00
2018-05-14T15:04:14.714Z,5.80
2018-05-14T15:06:43.116Z,4.82
2018-05-14T15:09:10.691Z,4.40
2018-05-14T15:11:38.193Z,4.50
2018-05-14T15:14:05.695Z,4.80
2018-05-14T15:16:33.237Z,4.67
2018-05-14T15:19:01.527Z,5.20
2018-05-14T15:21:29.091Z,4.50
2018-05-14T15:23:57.384Z,5.00
2018-05-14T15:26:24.901Z,4.65
2018-05-14T15:28:53.178Z,4.60
2018-05-14T15:31:21.537Z,5.00
2018-05-14T15:33:49.079Z,5.18
2018-05-14T15:36:16.606Z,5.00
2018-05-14T15:38:44.131Z,4.40
2018-05-14T15:41:11.685Z,4.78
2018-05-14T15:43:39.242Z,5.23
2018-05-14T15:46:06.954Z,4.50
2018-05-14T15:48:34.571Z,5.40
2018-05-14T15:51:02.078Z,4.35
2018-05-14T15:53:29.737Z,5.10
2018-05-14T15:55:57.342Z,4.95
2018-05-14T15:58:24.877Z,5.30
2018-05-14T16:00:52.426Z,4.60
2018-05-14T16:03:20.167Z,4.68
2018-05-14T16:05:47.716Z,4.37
2018-05-14T16:08:16.006Z,4.15
2018-05-14T16:10:44.317Z,4.30
2018-05-14T16:13:11.835Z,4.35
2018-05-14T16:15:39.371Z,4.80
2018-05-14T16:18:06.897Z,4.93
2018-05-14T16:20:34.409Z,4.83
2018-05-14T16:23:01.989Z,4.30
2018-05-14T16:25:29.613Z,5.00
2018-05-14T16:27:57.177Z,4.87
2018-05-14T16:30:24.852Z,5.35
2018-05-14T16:32:52.467Z,4.35
2018-05-14T16:35:19.985Z,4.28
2018-05-14T16:37:47.523Z,4.43
2018-05-14T16:40:15.037Z,3.65
2018-05-14T16:42:42.639Z,4.75
2018-05-14T16:45:10.170Z,5.25
2018-05-14T16:47:37.785Z,5.40
2018-05-14T16:50:06.197Z,5.00
2018-05-14T16:52:33.756Z,4.93
2018-05-14T16:55:01.680Z,3.90
2018-05-14T16:57:29.223Z,4.47
2018-05-14T16:59:57.001Z,4.80
2018-05-14T17:02:24.589Z,4.90
2018-05-14T17:04:52.947Z,4.18
2018-05-14T17:07:20.562Z,4.00
2018-05-14T17:09:48.078Z,4.35
2018-05-14T17:12:15.600Z,4.50
2018-05-14T17:14:43.149Z,4.12
2018-05-14T17:17:10.781Z,4.65
2018-05-14T17:19:38.321Z,6.00
2018-05-14T17:22:05.956Z,5.60
2018-05-14T17:24:33.524Z,5.18
2018-05-14T17:27:01.888Z,4.68
2018-05-14T17:29:29.553Z,4.80
2018-05-14T17:31:57.094Z,5.50
2018-05-14T17:34:25.479Z,4.50
2018-05-14T17:36:53.040Z,5.53
2018-05-14T17:39:20.611Z,4.40
2018-05-14T17:41:48.353Z,5.35
2018-05-14T17:44:15.870Z,4.95
2018-05-14T17:46:43.408Z,5.60
2018-05-14T17:49:10.930Z,6.30
2018-05-14T17:51:39.301Z,5.70
2018-05-14T17:54:06.888Z,6.15
2018-05-14T17:56:34.430Z,6.40
2018-05-14T17:59:02.015Z,7.75
2018-05-14T18:01:29.552Z,5.35
2018-05-14T18:03:57.091Z,5.10
2018-05-14T18:06:24.613Z,5.90
2018-05-14T18:08:52.903Z,6.22
2018-05-14T18:11:21.199Z,5.30
2018-05-14T18:13:48.895Z,6.60
2018-05-14T18:16:16.502Z,5.60
2018-05-14T18:18:44.017Z,7.78
2018-05-14T18:21:12.864Z,8.15
2018-05-14T18:23:46.748Z,7.90
2018-05-14T18:26:18.093Z,5.75
2018-05-14T18:28:49.476Z,6.03
2018-05-14T18:31:22.815Z,5.50
2018-05-14T18:33:50.331Z,6.30
2018-05-14T18:36:17.853Z,5.50
2018-05-14T18:38:45.406Z,5.90
2018-05-14T18:41:12.949Z,5.50
2018-05-14T18:43:40.594Z,5.93
2018-05-14T18:46:08.131Z,6.60
2018-05-14T18:48:36.418Z,6.78
2018-05-14T18:51:03.936Z,6.82
2018-05-14T18:53:31.563Z,9.13
2018-05-14T18:55:59.191Z,9.35
2018-05-14T18:58:26.750Z,7.50
2018-05-14T19:00:54.309Z,6.65
2018-05-14T19:03:22.666Z,22.98
2018-05-14T19:05:50.243Z,22.13
2018-05-14T19:08:18.582Z,11.15
2018-05-14T19:10:51.850Z,8.32
2018-05-14T19:13:19.408Z,7.30
2018-05-14T19:15:52.661Z,6.25
2018-05-14T19:18:20.230Z,6.90
2018-05-14T19:20:48.584Z,8.30
2018-05-14T19:23:21.877Z,6.50
2018-05-14T19:25:49.412Z,6.40
2018-05-14T19:28:22.504Z,6.12
2018-05-14T19:30:50.057Z,5.50
2018-05-14T19:33:23.284Z,6.28
2018-05-14T19:35:56.479Z,5.93
2018-05-14T19:38:24.111Z,6.75
2018-05-14T19:40:51.686Z,5.55
2018-05-14T19:43:19.215Z,5.97
2018-05-14T19:45:46.772Z,6.95
2018-05-14T19:48:14.380Z,6.20
2018-05-14T19:50:41.930Z,9.73
2018-05-14T19:53:09.512Z,6.12
2018-05-14T19:55:37.204Z,8.02
2018-05-14T19:58:04.792Z,6.32
2018-05-14T20:00:32.320Z,6.80
2018-05-14T20:02:59.862Z,15.70
2018-05-14T20:05:28.172Z,9.18
2018-05-14T20:07:55.697Z,10.60
2018-05-14T20:10:23.210Z,7.57
2018-05-14T20:12:50.793Z,6.78
2018-05-14T20:15:18.393Z,7.90
2018-05-14T20:17:46.689Z,6.55
2018-05-14T20:20:14.373Z,7.30
2018-05-14T20:22:41.843Z,6.68
2018-05-14T20:25:09.368Z,6.47
2018-05-14T20:27:36.989Z,7.43
2018-05-14T20:30:04.594Z,9.63
2018-05-14T20:32:32.161Z,15.35
2018-05-14T20:34:59.708Z,9.52
2018-05-14T20:37:27.311Z,9.65
2018-05-14T20:39:54.824Z,8.82
2018-05-14T20:42:23.226Z,6.60
2018-05-14T20:44:50.737Z,6.22
2018-05-14T20:47:19.065Z,6.05
2018-05-14T20:49:46.620Z,6.90
2018-05-14T20:52:14.183Z,6.62
2018-05-14T20:54:41.774Z,6.40
2018-05-14T20:57:09.324Z,8.90
2018-05-14T20:59:37.025Z,6.45
2018-05-14T21:02:04.585Z,6.70
2018-05-14T21:04:33.017Z,6.50
2018-05-14T21:07:00.550Z,5.80
2018-05-14T21:09:28.097Z,6.60
2018-05-14T21:11:56.452Z,9.02
2018-05-14T21:14:24.009Z,15.23
2018-05-14T21:16:51.521Z,7.85
2018-05-14T21:19:19.106Z,7.15
2018-05-14T21:21:46.643Z,6.70
2018-05-14T21:24:14.194Z,6.78
2018-05-14T21:26:41.792Z,6.82
2018-05-14T21:29:09.317Z,7.12
2018-05-14T21:31:36.859Z,6.82
2018-05-14T21:34:04.430Z,6.75
2018-05-14T21:36:31.960Z,7.10
2018-05-14T21:38:59.491Z,7.28
2018-05-14T21:41:27.064Z,8.25
2018-05-14T21:43:54.662Z,11.10
2018-05-14T21:46:22.207Z,6.50
2018-05-14T21:48:49.872Z,7.70
2018-05-14T21:51:17.427Z,7.40
2018-05-14T21:53:45.800Z,7.00
2018-05-14T21:56:13.315Z,7.57
2018-05-14T21:58:40.859Z,7.30
2018-05-14T22:01:08.438Z,6.68
2018-05-14T22:03:35.957Z,7.07
2018-05-14T22:06:04.253Z,7.25
2018-05-14T22:08:31.787Z,6.80
2018-05-14T22:10:59.309Z,7.20
2018-05-14T22:13:26.849Z,6.60
2018-05-14T22:15:54.350Z,6.00
2018-05-14T22:18:21.886Z,7.80
2018-05-14T22:20:49.407Z,6.32
2018-05-14T22:23:16.944Z,7.00
2018-05-14T22:25:44.477Z,6.97
2018-05-14T22:28:11.999Z,7.07
2018-05-14T22:30:39.543Z,6.47
2018-05-14T22:33:07.122Z,6.80
2018-05-14T22:35:34.637Z,6.70
2018-05-14T22:38:02.216Z,7.20
2018-05-14T22:40:29.760Z,6.62
2018-05-14T22:42:57.285Z,7.22
2018-05-14T22:45:24.837Z,7.07
2018-05-14T22:47:52.361Z,7.30
2018-05-14T22:50:19.899Z,6.77
2018-05-14T22:52:48.176Z,7.18
2018-05-14T22:55:15.756Z,7.68
2018-05-14T22:57:43.280Z,6.90
2018-05-14T23:00:10.795Z,6.95
2018-05-14T23:02:38.348Z,7.40
2018-05-14T23:05:05.876Z,7.25
2018-05-14T23:07:34.191Z,6.93
2018-05-14T23:10:01.729Z,6.87
2018-05-14T23:12:29.245Z,7.00
2018-05-14T23:14:56.807Z,7.00
2018-05-14T23:17:24.344Z,6.85
2018-05-14T23:19:51.867Z,6.68
2018-05-14T23:22:19.421Z,6.68
2018-05-14T23:24:46.944Z,7.00
2018-05-14T23:27:14.493Z,7.03
2018-05-14T23:29:41.998Z,7.30
2018-05-14T23:32:09.562Z,7.00
2018-05-14T23:34:37.841Z,9.23
2018-05-14T23:37:06.253Z,8.40
2018-05-14T23:39:33.806Z,7.57
2018-05-14T23:42:01.312Z,7.40
2018-05-14T23:44:28.902Z,7.20
2018-05-14T23:46:57.219Z,7.40
2018-05-14T23:49:24.749Z,8.35
2018-05-14T23:51:52.301Z,7.55
2018-05-14T23:54:20.576Z,7.40
2018-05-14T23:56:48.867Z,7.68
2018-05-14T23:59:16.419Z,7.40
